Time;durP1;ratioP1;P1;durP2;ratioP2;P2;SDS_P1;SDS_P2;PMS_P1;PMS_P2;Temp;Humidity;BMP_temperature;BMP_pressure;BME280_temperature;BME280_humidity;BME280_pressure;Samples;Min_cycle;Max_cycle;Signal;HPM_P1;HPM_P2
2021/07/23 00:01:10;;;;;;;20.10;11.43;;;;;;;21.13;78.92;98093.81;5089351;28;20085;-78
2021/07/23 00:03:36;;;;;;;11.55;8.85;;;;;;;21.11;79.20;98090.56;5089897;28;20063;-79
2021/07/23 00:06:03;;;;;;;16.00;10.68;;;;;;;21.06;79.88;98098.34;5091320;28;20031;-78
2021/07/23 00:08:29;;;;;;;17.08;10.05;;;;;;;21.01;80.67;98107.78;5091050;28;20140;-77
2021/07/23 00:10:54;;;;;;;16.08;9.68;;;;;;;20.87;81.10;98087.94;5090967;28;20045;-78
2021/07/23 00:13:19;;;;;;;13.13;10.38;;;;;;;21.11;80.31;98100.91;5090618;28;20031;-78
2021/07/23 00:15:45;;;;;;;16.02;10.77;;;;;;;21.03;80.02;98091.53;5090922;28;20099;-78
2021/07/23 00:18:10;;;;;;;14.65;9.77;;;;;;;21.00;79.38;98095.03;5090436;28;20547;-80
2021/07/23 00:20:36;;;;;;;14.55;10.23;;;;;;;21.03;78.81;98093.50;5090540;28;20028;-79
2021/07/23 00:23:01;;;;;;;12.07;9.98;;;;;;;21.10;77.86;98086.19;5090702;28;20038;-78
2021/07/23 00:25:26;;;;;;;16.25;11.90;;;;;;;20.99;78.26;98082.28;5089567;28;20028;-78
2021/07/23 00:27:52;;;;;;;15.75;12.10;;;;;;;20.92;78.24;98087.69;5090434;28;20396;-79
2021/07/23 00:30:17;;;;;;;14.63;10.73;;;;;;;20.81;78.47;98079.06;5089343;28;20111;-80
2021/07/23 00:32:42;;;;;;;14.18;11.15;;;;;;;20.76;78.48;98084.94;5090225;28;20078;-80
2021/07/23 00:35:09;;;;;;;14.93;10.68;;;;;;;20.79;78.86;98080.59;5090253;28;20516;-80
2021/07/23 00:37:35;;;;;;;14.15;11.00;;;;;;;20.76;78.97;98075.78;5090069;28;20056;-81
2021/07/23 00:40:00;;;;;;;17.75;10.55;;;;;;;20.76;78.46;98086.88;5090431;28;20086;-79
2021/07/23 00:42:42;;;;;;;18.35;10.43;;;;;;;20.73;79.02;98095.94;5089822;28;20036;-79
2021/07/23 00:45:09;;;;;;;10.48;9.15;;;;;;;20.70;79.31;98093.88;5089982;28;20063;-78
2021/07/23 00:47:36;;;;;;;13.60;9.77;;;;;;;20.72;79.69;98095.13;5088370;28;20024;-78
2021/07/23 00:50:02;;;;;;;16.40;10.48;;;;;;;20.79;79.41;98091.72;5089017;28;20024;-81
2021/07/23 00:52:28;;;;;;;15.35;10.68;;;;;;;20.80;79.11;98083.03;5089887;28;20137;-79
2021/07/23 00:54:54;;;;;;;16.83;11.68;;;;;;;20.72;78.79;98077.66;5071927;28;20036;-80
2021/07/23 00:57:20;;;;;;;13.68;10.57;;;;;;;20.68;78.66;98072.00;5089946;28;20020;-80
2021/07/23 00:59:46;;;;;;;16.15;9.82;;;;;;;20.71;78.71;98068.50;5088476;28;20027;-79
2021/07/23 01:02:12;;;;;;;14.65;11.20;;;;;;;20.70;78.64;98068.88;5089729;28;20032;-79
2021/07/23 01:04:38;;;;;;;11.20;8.52;;;;;;;20.84;77.73;98069.22;5088759;28;20502;-79
2021/07/23 01:07:04;;;;;;;12.68;9.75;;;;;;;20.73;78.13;98068.16;5088484;28;20400;-80
2021/07/23 01:09:30;;;;;;;18.50;10.20;;;;;;;20.64;78.57;98065.53;5087866;28;20031;-79
2021/07/23 01:11:56;;;;;;;14.13;10.68;;;;;;;20.63;79.34;98068.69;5089408;28;20024;-79
2021/07/23 01:14:22;;;;;;;11.95;9.20;;;;;;;20.63;78.99;98068.69;5089748;28;20043;-79
2021/07/23 01:16:48;;;;;;;12.73;10.05;;;;;;;20.59;79.04;98065.00;5089721;28;20032;-79
2021/07/23 01:19:14;;;;;;;12.85;10.10;;;;;;;20.55;79.21;98062.13;5088655;28;20113;-79
2021/07/23 01:21:42;;;;;;;12.45;9.48;;;;;;;20.68;78.52;98062.84;5089865;28;20055;-79
2021/07/23 01:24:12;;;;;;;13.57;9.30;;;;;;;20.81;78.04;98067.97;5088169;28;20028;-79
2021/07/23 01:26:39;;;;;;;15.02;9.02;;;;;;;20.91;77.96;98068.56;5089897;28;20031;-79
2021/07/23 01:29:05;;;;;;;10.65;8.95;;;;;;;20.86;78.31;98061.31;5088179;28;20028;-79
2021/07/23 01:31:30;;;;;;;12.23;8.48;;;;;;;21.11;76.80;98068.31;5088353;28;20107;-80
2021/07/23 01:33:55;;;;;;;10.82;8.88;;;;;;;20.97;76.94;98065.16;5087892;28;20024;-79
2021/07/23 01:36:22;;;;;;;11.30;9.13;;;;;;;21.02;77.22;98059.31;5089522;28;20048;-80
2021/07/23 01:38:50;;;;;;;11.95;9.45;;;;;;;20.82;77.75;98054.88;5089639;28;20038;-81
2021/07/23 01:41:15;;;;;;;12.05;9.35;;;;;;;20.75;78.23;98054.69;5087877;28;20024;-82
2021/07/23 01:43:41;;;;;;;13.00;8.95;;;;;;;20.70;78.58;98047.44;5088337;28;20034;-79
2021/07/23 01:46:06;;;;;;;9.73;8.40;;;;;;;20.66;78.96;98040.97;5088302;28;20028;-79
2021/07/23 01:48:32;;;;;;;10.70;9.10;;;;;;;20.65;78.93;98042.13;5089404;28;20035;-80
2021/07/23 01:50:57;;;;;;;14.35;9.98;;;;;;;20.58;79.23;98038.38;5088115;28;20020;-79
2021/07/23 01:53:23;;;;;;;14.50;9.48;;;;;;;20.56;79.83;98040.69;5087927;28;20020;-80
2021/07/23 01:55:48;;;;;;;12.07;9.70;;;;;;;20.55;80.43;98041.88;5088373;28;20035;-79
2021/07/23 01:58:14;;;;;;;13.52;9.95;;;;;;;20.64;80.13;98039.72;5089300;28;20036;-80
2021/07/23 02:00:39;;;;;;;11.50;8.75;;;;;;;20.59;80.55;98039.97;5089548;28;20028;-80
2021/07/23 02:03:05;;;;;;;15.55;9.57;;;;;;;20.51;80.70;98021.50;5088128;28;20032;-80
2021/07/23 02:05:30;;;;;;;12.30;8.60;;;;;;;20.52;80.61;98023.09;5089246;28;20034;-79
2021/07/23 02:07:56;;;;;;;13.20;9.65;;;;;;;20.54;80.94;98032.72;5087728;28;20118;-80
2021/07/23 02:10:21;;;;;;;14.80;11.13;;;;;;;20.61;80.71;98032.88;5087862;28;20127;-79
2021/07/23 02:12:47;;;;;;;12.90;9.55;;;;;;;20.62;80.71;98033.69;5088115;28;20362;-80
2021/07/23 02:15:12;;;;;;;14.15;10.07;;;;;;;20.62;81.31;98034.50;5089092;28;20186;-81
2021/07/23 02:17:38;;;;;;;13.80;9.98;;;;;;;20.54;82.08;98031.91;5089040;28;20024;-78
2021/07/23 02:20:04;;;;;;;12.98;9.63;;;;;;;20.51;82.52;98027.88;5089986;28;20032;-78
2021/07/23 02:22:29;;;;;;;16.35;10.52;;;;;;;20.44;82.96;98018.53;5093226;28;20028;-80
2021/07/23 02:24:55;;;;;;;12.07;9.75;;;;;;;20.31;83.24;98001.16;5091063;28;20392;-79
2021/07/23 02:27:21;;;;;;;16.13;10.77;;;;;;;20.27;83.09;98011.34;5093197;28;20169;-78
2021/07/23 02:29:46;;;;;;;14.25;8.98;;;;;;;20.33;82.31;98025.81;5092959;28;20496;-80
2021/07/23 02:32:11;;;;;;;13.77;9.18;;;;;;;20.44;81.08;98015.75;5092721;28;20035;-79
2021/07/23 02:34:37;;;;;;;14.45;10.10;;;;;;;20.23;81.95;98035.44;5092337;28;20040;-79
2021/07/23 02:37:02;;;;;;;13.25;9.40;;;;;;;20.11;82.09;98024.41;5092254;28;20036;-76
2021/07/23 02:39:28;;;;;;;11.45;8.70;;;;;;;20.04;81.97;98022.25;5092727;28;20035;-80
2021/07/23 02:41:53;;;;;;;12.43;8.75;;;;;;;20.19;81.62;98021.47;5092666;28;20026;-78
2021/07/23 02:44:19;;;;;;;10.25;9.13;;;;;;;20.25;81.29;98030.34;5092488;28;20050;-79
2021/07/23 02:46:44;;;;;;;9.80;7.03;;;;;;;20.21;81.29;98019.13;5092526;28;20034;-80
2021/07/23 02:49:10;;;;;;;10.43;8.48;;;;;;;20.12;81.80;98021.25;5092554;28;20039;-80
2021/07/23 02:51:35;;;;;;;13.18;9.10;;;;;;;20.15;82.41;98028.06;5091025;28;20020;-78
2021/07/23 02:54:01;;;;;;;11.55;10.05;;;;;;;20.03;83.26;98017.03;5091802;28;20051;-81
2021/07/23 02:56:26;;;;;;;13.27;9.63;;;;;;;20.03;83.64;98028.94;5091434;28;20059;-78
2021/07/23 02:58:52;;;;;;;17.00;9.13;;;;;;;20.08;83.21;98014.00;5090932;28;20097;-79
2021/07/23 03:01:17;;;;;;;15.00;8.65;;;;;;;20.00;83.32;98018.56;5092478;28;20039;-78
2021/07/23 03:03:43;;;;;;;12.57;9.38;;;;;;;19.90;83.67;98004.38;5090927;28;20055;-81
2021/07/23 03:06:08;;;;;;;11.38;8.93;;;;;;;19.87;83.28;98007.84;5091918;28;20031;-81
2021/07/23 03:08:34;;;;;;;14.30;9.57;;;;;;;19.89;82.78;98009.09;5092028;28;20032;-80
2021/07/23 03:11:01;;;;;;;14.63;9.50;;;;;;;19.85;83.02;98010.19;5090543;28;20032;-80
2021/07/23 03:13:27;;;;;;;13.65;8.35;;;;;;;19.66;84.09;97999.75;5090551;28;20669;-79
2021/07/23 03:15:52;;;;;;;13.00;8.27;;;;;;;19.67;84.32;98009.69;5090922;28;20024;-77
2021/07/23 03:18:17;;;;;;;12.90;9.50;;;;;;;19.58;84.90;97995.94;5090852;28;20038;-79
2021/07/23 03:20:43;;;;;;;9.90;8.38;;;;;;;19.77;84.12;97998.88;5092052;28;20476;-79
2021/07/23 03:23:09;;;;;;;11.65;8.07;;;;;;;19.61;84.77;98000.78;5090346;28;20418;-78
2021/07/23 03:25:36;;;;;;;13.55;8.30;;;;;;;19.60;85.54;97992.84;5091757;28;20463;-78
2021/07/23 03:28:01;;;;;;;13.70;8.82;;;;;;;19.62;85.59;98007.16;5090436;28;20384;-80
2021/07/23 03:30:27;;;;;;;11.68;9.25;;;;;;;19.51;86.54;98001.31;5091307;28;20028;-81
2021/07/23 03:32:53;;;;;;;9.93;8.38;;;;;;;19.55;86.41;98006.94;5090390;28;20130;-79
2021/07/23 03:35:19;;;;;;;11.38;8.95;;;;;;;19.72;85.52;98012.22;5090178;28;20096;-79
2021/07/23 03:37:44;;;;;;;17.75;12.02;;;;;;;19.67;85.93;98006.94;5090129;28;20448;-80
2021/07/23 03:40:10;;;;;;;10.65;8.60;;;;;;;19.67;86.03;98004.94;5091517;28;20685;-78
2021/07/23 03:42:35;;;;;;;15.15;10.02;;;;;;;19.80;85.40;98002.13;5091592;28;20039;-80
2021/07/23 03:45:01;;;;;;;12.68;8.93;;;;;;;19.78;85.02;97996.91;5090884;28;20039;-81
2021/07/23 03:47:26;;;;;;;10.82;8.18;;;;;;;19.94;84.58;98006.09;5090986;28;20039;-80
2021/07/23 03:49:52;;;;;;;14.13;9.50;;;;;;;19.83;84.99;98010.53;5091432;28;20024;-79
2021/07/23 03:52:17;;;;;;;15.70;9.80;;;;;;;19.82;84.99;98010.91;5091315;28;20067;-78
2021/07/23 03:54:42;;;;;;;12.95;10.02;;;;;;;19.73;85.38;98011.06;5087868;28;20039;-79
2021/07/23 03:57:08;;;;;;;15.05;10.35;;;;;;;19.76;85.26;98010.34;5078469;28;20035;-79
2021/07/23 03:59:34;;;;;;;11.27;8.45;;;;;;;19.85;85.07;98016.56;5089323;28;20035;-80
2021/07/23 04:02:00;;;;;;;14.68;9.50;;;;;;;19.81;84.52;98004.53;5079360;28;20025;-78
2021/07/23 04:04:26;;;;;;;15.85;10.85;;;;;;;19.91;84.39;98012.34;5070555;28;20021;-79
2021/07/23 04:06:59;;;;;;;16.20;10.07;;;;;;;19.95;84.17;98010.50;5068479;28;20028;-80
2021/07/23 04:09:25;;;;;;;16.42;9.70;;;;;;;20.10;84.01;98022.78;5070165;28;20485;-79
2021/07/23 04:11:52;;;;;;;13.88;10.57;;;;;;;20.07;84.20;98015.97;5070500;28;20028;-81
2021/07/23 04:14:18;;;;;;;14.55;10.98;;;;;;;19.97;84.61;98013.72;5081362;28;20028;-79
2021/07/23 04:16:44;;;;;;;13.02;10.38;;;;;;;19.98;84.51;98008.97;5090377;28;20077;-79
2021/07/23 04:19:09;;;;;;;17.27;12.05;;;;;;;20.17;83.93;98023.75;5090379;28;20107;-78
2021/07/23 04:21:35;;;;;;;15.18;9.50;;;;;;;20.08;84.38;98022.34;5089029;28;20032;-79
2021/07/23 04:24:01;;;;;;;15.20;10.23;;;;;;;20.09;84.44;98021.97;5090509;28;20024;-77
2021/07/23 04:26:26;;;;;;;17.13;9.95;;;;;;;20.15;84.47;98020.53;5090355;28;20032;-77
2021/07/23 04:28:52;;;;;;;13.00;9.75;;;;;;;20.30;84.19;98030.09;5088661;28;20035;-80
2021/07/23 04:31:17;;;;;;;17.27;11.75;;;;;;;20.30;84.03;98028.13;5090147;28;20148;-79
2021/07/23 04:33:42;;;;;;;15.43;10.35;;;;;;;20.35;84.52;98040.16;5090468;28;20020;-80
2021/07/23 04:36:08;;;;;;;14.98;10.60;;;;;;;20.34;84.68;98032.97;5089775;28;20396;-83
2021/07/23 04:38:33;;;;;;;15.15;10.95;;;;;;;20.37;84.60;98030.28;5090380;28;20028;-82
2021/07/23 04:40:59;;;;;;;15.00;10.60;;;;;;;20.43;84.54;98022.47;5092949;28;20023;-83
2021/07/23 04:43:24;;;;;;;14.95;9.85;;;;;;;20.61;83.60;98021.75;5092796;28;20028;-85
2021/07/23 04:45:49;;;;;;;19.58;11.82;;;;;;;20.46;84.76;98035.66;5091513;28;20116;-85
2021/07/23 04:48:15;;;;;;;11.50;10.30;;;;;;;20.43;85.07;98039.16;5093693;28;20135;-85
2021/07/23 04:50:40;;;;;;;15.80;10.98;;;;;;;20.52;84.57;98026.69;5083926;28;20024;-84
2021/07/23 04:53:05;;;;;;;14.18;11.27;;;;;;;20.57;83.91;98032.00;5077550;28;20021;-83
2021/07/23 04:55:31;;;;;;;15.25;10.27;;;;;;;20.58;84.15;98030.03;5080638;28;20029;-85
2021/07/23 04:57:56;;;;;;;22.73;12.23;;;;;;;20.66;84.11;98035.41;5074876;28;20025;-82
2021/07/23 05:00:22;;;;;;;15.55;11.25;;;;;;;20.71;84.06;98035.13;5070931;28;20036;-78
2021/07/23 05:02:54;;;;;;;21.50;12.80;;;;;;;20.76;83.94;98031.28;5073748;28;20057;-88
2021/07/23 05:05:25;;;;;;;18.10;12.88;;;;;;;20.77;83.89;98032.88;5077238;28;20024;-87
2021/07/23 05:07:50;;;;;;;22.38;13.30;;;;;;;20.81;83.51;98047.69;5095210;28;20024;-86
2021/07/23 05:10:17;;;;;;;17.55;12.82;;;;;;;20.95;82.79;98034.13;5079748;28;20035;-90
2021/07/23 05:12:43;;;;;;;18.58;12.85;;;;;;;21.02;82.27;98045.41;5076161;28;20044;-87
2021/07/23 05:15:10;;;;;;;15.88;10.35;;;;;;;21.03;82.41;98046.22;5081731;28;20078;-90
2021/07/23 05:17:38;;;;;;;20.60;10.43;;;;;;;21.15;82.14;98041.38;5117108;28;20025;-90
2021/07/23 05:20:08;;;;;;;15.07;10.98;;;;;;;21.17;81.55;98044.63;5088243;28;20020;-88
2021/07/23 05:22:35;;;;;;;13.43;10.25;;;;;;;21.21;81.32;98033.53;5091362;28;20151;-90
2021/07/23 05:25:01;;;;;;;13.95;10.50;;;;;;;21.48;80.09;98046.50;5082496;28;20037;-89
2021/07/23 05:27:28;;;;;;;12.63;9.73;;;;;;;21.54;79.78;98049.81;5076753;28;20122;-88
2021/07/23 05:29:53;;;;;;;11.95;10.07;;;;;;;21.58;79.21;98047.91;5076254;28;20020;-87
2021/07/23 05:32:19;;;;;;;20.48;11.15;;;;;;;21.71;78.20;98052.16;5079269;28;20032;-78
2021/07/23 05:34:44;;;;;;;14.82;9.95;;;;;;;21.71;78.36;98049.34;5087009;28;20037;-84
2021/07/23 05:37:09;;;;;;;16.52;9.85;;;;;;;21.81;78.16;98054.34;5089894;28;20028;-89
2021/07/23 05:39:40;;;;;;;13.10;9.02;;;;;;;21.63;79.20;98050.41;5090181;28;20060;-81
2021/07/23 05:42:05;;;;;;;14.18;10.88;;;;;;;21.58;79.71;98045.13;5097240;28;20008;-79
2021/07/23 05:44:31;;;;;;;15.35;10.57;;;;;;;21.65;79.42;98048.03;5084802;28;20096;-86
2021/07/23 05:46:59;;;;;;;13.77;10.65;;;;;;;21.66;77.88;98032.94;5084609;28;20039;-87
2021/07/23 05:49:25;;;;;;;16.10;11.15;;;;;;;21.79;76.63;98042.78;5073280;28;20032;-79
2021/07/23 05:51:50;;;;;;;12.52;10.32;;;;;;;22.11;75.59;98044.25;5072500;28;20038;-79
2021/07/23 05:54:16;;;;;;;20.40;10.52;;;;;;;22.09;75.58;98040.22;5067678;28;21089;-79
2021/07/23 05:56:41;;;;;;;20.25;10.30;;;;;;;22.33;73.73;98046.25;5072948;28;20025;-83
2021/07/23 05:59:06;;;;;;;14.93;10.68;;;;;;;22.25;73.72;98041.72;5074828;28;20127;-79
2021/07/23 06:01:32;;;;;;;14.52;9.70;;;;;;;22.11;73.26;98044.25;5074845;28;20024;-84
2021/07/23 06:03:59;;;;;;;13.25;10.05;;;;;;;21.90;74.52;98052.19;5078913;28;20113;-79
2021/07/23 06:06:24;;;;;;;11.48;8.68;;;;;;;21.73;76.52;98045.06;5077397;28;20034;-78
2021/07/23 06:08:50;;;;;;;14.35;9.57;;;;;;;21.96;73.76;98047.16;5082774;28;20107;-83
2021/07/23 06:11:15;;;;;;;12.73;9.30;;;;;;;21.93;74.00;98056.22;5079256;28;20052;-86
2021/07/23 06:13:41;;;;;;;12.75;10.18;;;;;;;21.53;77.02;98045.41;5090792;28;20081;-81
2021/07/23 06:16:07;;;;;;;11.60;9.38;;;;;;;21.43;75.50;98048.75;5093389;28;20051;-78
2021/07/23 06:18:33;;;;;;;14.25;10.32;;;;;;;21.75;76.12;98053.84;5093269;28;20028;-78
2021/07/23 06:20:59;;;;;;;16.92;12.30;;;;;;;22.03;72.51;98047.25;5093273;28;20108;-77
2021/07/23 06:23:24;;;;;;;13.63;9.32;;;;;;;22.18;71.70;98054.72;5091775;28;20036;-79
2021/07/23 06:25:51;;;;;;;12.93;9.20;;;;;;;22.26;71.62;98048.13;5091504;28;20089;-81
2021/07/23 06:28:16;;;;;;;12.57;9.48;;;;;;;22.59;71.26;98058.66;5092894;28;20119;-80
2021/07/23 06:30:42;;;;;;;14.43;9.90;;;;;;;22.87;70.00;98050.81;5093056;28;20119;-79
2021/07/23 06:33:07;;;;;;;12.88;9.45;;;;;;;23.06;68.40;98052.72;5091723;28;20081;-79
2021/07/23 06:35:33;;;;;;;13.98;10.38;;;;;;;23.52;68.60;98051.47;5092378;28;20044;-82
2021/07/23 06:37:59;;;;;;;10.40;8.00;;;;;;;24.18;66.26;98061.91;5095555;28;20139;-83
2021/07/23 06:40:26;;;;;;;12.88;9.48;;;;;;;24.39;63.36;98056.53;5091769;28;20028;-82
2021/07/23 06:42:51;;;;;;;14.30;8.45;;;;;;;24.52;62.11;98052.28;5091900;28;20054;-82
2021/07/23 06:45:18;;;;;;;12.85;9.52;;;;;;;24.53;61.17;98058.66;5094111;28;20118;-83
2021/07/23 06:47:43;;;;;;;19.50;10.07;;;;;;;24.42;62.34;98066.97;5092397;28;20040;-81
2021/07/23 06:50:09;;;;;;;14.65;9.27;;;;;;;24.44;63.47;98053.38;5091942;28;20027;-82
2021/07/23 06:52:34;;;;;;;13.80;9.43;;;;;;;24.19;65.57;98069.09;5091221;28;20024;-82
2021/07/23 06:55:00;;;;;;;13.77;9.82;;;;;;;23.55;68.06;98066.66;5093998;28;20035;-84
2021/07/23 06:57:26;;;;;;;13.38;9.45;;;;;;;24.03;66.54;98068.47;5092744;28;20389;-84
2021/07/23 06:59:53;;;;;;;13.88;9.30;;;;;;;24.04;68.85;98072.06;5093306;28;20472;-82
2021/07/23 07:02:19;;;;;;;11.30;8.70;;;;;;;24.61;66.10;98062.34;5092432;28;20082;-83
2021/07/23 07:04:44;;;;;;;16.75;9.55;;;;;;;25.16;63.19;98061.25;5092285;28;20043;-82
2021/07/23 07:07:11;;;;;;;16.73;9.93;;;;;;;24.64;64.57;98067.16;5093249;28;20488;-85
2021/07/23 07:09:37;;;;;;;18.77;9.88;;;;;;;24.58;64.94;98060.31;5093377;28;20020;-82
2021/07/23 07:12:03;;;;;;;11.95;8.93;;;;;;;24.53;65.41;98073.47;5094375;28;20058;-85
2021/07/23 07:14:29;;;;;;;13.63;9.48;;;;;;;24.46;66.28;98065.00;5093746;28;20028;-82
2021/07/23 07:16:57;;;;;;;11.80;9.15;;;;;;;25.00;61.79;98072.72;5092077;28;20169;-83
2021/07/23 07:19:23;;;;;;;21.42;10.35;;;;;;;24.78;64.12;98064.50;5092805;28;20055;-84
2021/07/23 07:21:49;;;;;;;17.90;8.57;;;;;;;24.75;62.25;98068.88;5092577;28;20020;-83
2021/07/23 07:24:19;;;;;;;10.50;8.98;;;;;;;24.57;62.45;98067.09;5093609;28;20065;-84
2021/07/23 07:26:46;;;;;;;16.63;9.50;;;;;;;24.90;62.69;98065.03;5092635;28;20036;-83
2021/07/23 07:29:12;;;;;;;11.98;8.88;;;;;;;25.33;61.14;98066.19;5092042;28;20028;-83
2021/07/23 07:31:38;;;;;;;11.18;8.48;;;;;;;25.20;60.14;98062.09;5091893;28;20036;-83
2021/07/23 07:34:03;;;;;;;15.60;8.48;;;;;;;25.19;58.71;98063.28;5091855;28;20028;-84
2021/07/23 07:36:29;;;;;;;12.43;9.07;;;;;;;25.28;59.00;98060.94;5091892;28;20051;-84
2021/07/23 07:38:58;;;;;;;11.52;7.72;;;;;;;25.71;56.07;98059.25;5093075;28;20440;-83
2021/07/23 07:41:24;;;;;;;13.13;8.20;;;;;;;25.73;57.74;98061.63;5093580;28;20507;-84
2021/07/23 07:43:49;;;;;;;13.20;8.23;;;;;;;25.86;54.78;98060.09;5093434;28;20024;-83
2021/07/23 07:46:15;;;;;;;13.05;8.30;;;;;;;25.34;56.46;98055.78;5093394;28;20019;-82
2021/07/23 07:48:40;;;;;;;13.57;10.65;;;;;;;24.78;55.97;98056.91;5091805;28;20081;-83
2021/07/23 07:51:08;;;;;;;10.00;7.13;;;;;;;25.18;54.71;98055.28;5093174;28;20024;-84
2021/07/23 07:53:34;;;;;;;14.13;7.50;;;;;;;25.86;54.11;98054.50;5091861;28;20118;-83
2021/07/23 07:55:59;;;;;;;11.60;7.15;;;;;;;25.52;53.43;98051.13;5092128;28;20084;-84
2021/07/23 07:58:26;;;;;;;8.82;6.75;;;;;;;25.21;53.29;98063.69;5092950;28;20012;-84
2021/07/23 08:00:51;;;;;;;8.10;5.63;;;;;;;25.38;51.46;98054.59;5093089;28;20028;-83
2021/07/23 08:03:17;;;;;;;11.35;6.95;;;;;;;25.79;51.71;98062.88;5092335;28;20020;-82
2021/07/23 08:05:42;;;;;;;8.57;6.68;;;;;;;26.34;50.75;98055.91;5092387;28;20058;-82
2021/07/23 08:08:10;;;;;;;7.30;6.40;;;;;;;26.27;51.20;98064.31;5091456;28;20115;-85
2021/07/23 08:10:36;;;;;;;9.65;6.70;;;;;;;25.53;54.87;98061.13;5092193;28;20077;-84
2021/07/23 08:13:04;;;;;;;8.43;7.05;;;;;;;25.67;51.07;98057.59;5091698;28;20387;-87
2021/07/23 08:15:30;;;;;;;9.95;7.07;;;;;;;25.40;53.93;98045.81;5093125;28;20028;-83
2021/07/23 08:17:57;;;;;;;11.25;7.50;;;;;;;25.76;52.32;98052.44;5090552;28;20502;-83
2021/07/23 08:20:23;;;;;;;12.25;8.13;;;;;;;26.21;50.91;98049.06;5093027;28;20131;-82
2021/07/23 08:22:49;;;;;;;10.63;7.32;;;;;;;26.75;50.13;98061.97;5092836;28;20487;-82
2021/07/23 08:25:14;;;;;;;13.38;7.38;;;;;;;26.43;48.43;98052.72;5092484;28;20365;-84
2021/07/23 08:27:39;;;;;;;8.60;6.82;;;;;;;26.16;48.53;98057.84;5092931;28;20039;-84
2021/07/23 08:30:06;;;;;;;7.72;5.38;;;;;;;26.60;44.16;98061.16;5091451;28;20020;-84
2021/07/23 08:32:36;;;;;;;9.38;6.60;;;;;;;26.77;47.23;98055.97;5092612;28;20437;-84
2021/07/23 08:35:02;;;;;;;8.18;5.82;;;;;;;26.88;45.90;98054.00;5090927;28;20404;-84
2021/07/23 08:37:27;;;;;;;8.55;6.53;;;;;;;27.01;46.36;98035.56;5092479;28;20028;-84
2021/07/23 08:39:53;;;;;;;9.18;6.80;;;;;;;26.95;47.95;98048.41;5091153;28;20480;-84
2021/07/23 08:42:37;;;;;;;12.52;7.28;;;;;;;26.53;47.92;98055.53;5091216;28;20016;-85
2021/07/23 08:45:06;;;;;;;11.65;7.70;;;;;;;26.33;47.21;98043.09;5075438;28;20064;-86
2021/07/23 08:47:31;;;;;;;7.93;6.47;;;;;;;26.28;47.19;98051.88;5075086;28;20038;-85
2021/07/23 08:49:57;;;;;;;8.10;6.60;;;;;;;26.94;47.63;98055.22;5091440;28;20553;-87
2021/07/23 08:52:39;;;;;;;6.28;5.40;;;;;;;27.86;45.57;98052.28;5091290;28;20016;-85
2021/07/23 08:55:06;;;;;;;8.52;6.43;;;;;;;28.28;43.92;98054.16;5091284;28;20117;-84
2021/07/23 08:57:31;;;;;;;10.93;7.72;;;;;;;26.88;45.84;98042.78;5092574;28;20537;-85
2021/07/23 08:59:56;;;;;;;9.50;6.55;;;;;;;26.65;47.61;98039.53;5091716;28;20040;-88
2021/07/23 09:02:22;;;;;;;8.85;6.10;;;;;;;26.76;47.44;98051.56;5091487;28;20031;-84
2021/07/23 09:04:47;;;;;;;11.10;6.70;;;;;;;26.75;46.61;98039.53;5091978;28;20055;-86
2021/07/23 09:07:17;;;;;;;8.10;6.25;;;;;;;27.55;44.91;98037.91;5092688;28;20039;-84
2021/07/23 09:09:42;;;;;;;9.20;6.45;;;;;;;27.51;45.47;98036.31;5093510;28;20031;-85
2021/07/23 09:12:09;;;;;;;9.95;6.60;;;;;;;27.04;46.41;98045.97;5091108;28;20024;-86
2021/07/23 09:14:35;;;;;;;10.05;6.78;;;;;;;26.71;47.73;98035.13;5091778;28;20026;-85
2021/07/23 09:17:01;;;;;;;11.85;6.63;;;;;;;27.05;46.86;98037.16;5091753;28;20491;-87
2021/07/23 09:19:26;;;;;;;12.52;6.40;;;;;;;27.33;45.66;98033.53;5092154;28;20044;-84
2021/07/23 09:21:56;;;;;;;10.00;6.75;;;;;;;27.30;44.59;98033.53;5093086;28;20027;-87
2021/07/23 09:24:23;;;;;;;9.43;6.32;;;;;;;27.67;45.26;98028.25;5091335;28;20024;-85
2021/07/23 09:26:49;;;;;;;7.15;5.68;;;;;;;27.49;44.54;98021.88;5091686;28;20059;-86
2021/07/23 09:29:14;;;;;;;7.40;6.70;;;;;;;27.14;44.51;98022.69;5091871;28;20020;-87
2021/07/23 09:32:00;;;;;;;10.48;6.43;;;;;;;27.23;43.88;98020.28;5094552;28;20388;-84
2021/07/23 09:34:37;;;;;;;7.65;6.15;;;;;;;27.29;44.05;98018.66;5096333;28;20107;-84
2021/07/23 09:37:11;;;;;;;6.97;5.35;;;;;;;27.61;43.16;98013.00;5095863;28;20038;-85
2021/07/23 09:39:37;;;;;;;9.98;5.93;;;;;;;27.86;43.28;98019.34;5095708;28;20032;-85
2021/07/23 09:42:03;;;;;;;7.38;6.35;;;;;;;27.41;43.55;98006.22;5096332;28;20036;-85
2021/07/23 09:44:29;;;;;;;9.15;6.20;;;;;;;27.43;43.47;98007.44;5096776;28;20031;-86
2021/07/23 09:46:54;;;;;;;7.07;5.25;;;;;;;27.46;43.89;98009.44;5096320;28;20020;-87
2021/07/23 09:49:20;;;;;;;7.70;5.68;;;;;;;27.52;44.46;98005.00;5097231;28;20363;-86
2021/07/23 09:51:46;;;;;;;8.15;6.38;;;;;;;27.62;43.75;98009.00;5095380;28;20028;-87
2021/07/23 09:54:12;;;;;;;7.97;5.53;;;;;;;27.34;44.81;97997.78;5095262;28;20115;-86
2021/07/23 09:56:38;;;;;;;10.40;5.78;;;;;;;27.59;43.99;98004.19;5091754;28;20024;-86
2021/07/23 09:59:11;;;;;;;9.15;5.88;;;;;;;27.66;43.72;98004.94;5096744;28;20491;-85
2021/07/23 10:01:46;;;;;;;7.47;6.03;;;;;;;27.20;44.89;97998.63;5094975;28;20593;-86
2021/07/23 10:04:30;;;;;;;8.70;5.70;;;;;;;27.30;44.04;97997.00;5095295;28;20476;-88
2021/07/23 10:07:09;;;;;;;8.18;5.75;;;;;;;27.64;43.34;97984.06;5094939;28;20056;-87
2021/07/23 10:09:38;;;;;;;7.40;5.70;;;;;;;27.79;42.63;97987.63;5091034;28;20046;-86
2021/07/23 10:12:06;;;;;;;8.35;5.30;;;;;;;28.03;42.83;97981.91;5095570;28;20373;-85
2021/07/23 10:14:37;;;;;;;9.73;5.80;;;;;;;27.69;42.24;97985.69;5089906;28;20051;-84
2021/07/23 10:17:03;;;;;;;7.75;6.03;;;;;;;27.58;43.24;97980.06;5094341;28;20028;-87
2021/07/23 10:19:29;;;;;;;7.78;6.05;;;;;;;27.69;42.58;97971.63;5095110;28;20028;-88
2021/07/23 10:21:56;;;;;;;7.22;5.90;;;;;;;28.01;42.42;97969.44;5094986;28;20032;-85
2021/07/23 10:24:22;;;;;;;9.25;7.13;;;;;;;27.53;43.72;97972.88;5096346;28;20042;-87
2021/07/23 10:26:49;;;;;;;10.10;5.72;;;;;;;27.62;43.29;97964.81;5094484;28;20024;-85
2021/07/23 10:29:44;;;;;;;6.30;5.28;;;;;;;27.63;43.38;97957.97;5095766;28;20484;-87
2021/07/23 10:32:25;;;;;;;7.90;5.82;;;;;;;27.61;43.40;97957.56;5086118;28;20040;-83
2021/07/23 10:34:55;;;;;;;7.88;6.63;;;;;;;28.19;41.45;97953.28;5095536;28;20036;-87
2021/07/23 10:37:30;;;;;;;8.65;5.93;;;;;;;27.43;42.93;97956.84;5096012;28;20560;-83
2021/07/23 10:40:08;;;;;;;8.47;6.40;;;;;;;27.54;42.66;97946.34;5096090;28;20031;-85
2021/07/23 10:42:35;;;;;;;8.02;5.72;;;;;;;27.62;42.46;97950.75;5095513;28;20028;-85
2021/07/23 10:45:03;;;;;;;6.43;5.65;;;;;;;28.26;41.48;97941.97;5095147;28;20052;-85
2021/07/23 10:47:43;;;;;;;6.93;5.32;;;;;;;28.87;40.55;97925.41;5093845;28;20024;-86
2021/07/23 10:50:13;;;;;;;9.73;5.43;;;;;;;28.30;40.91;97937.13;5094886;28;20027;-85
2021/07/23 10:52:39;;;;;;;6.80;5.30;;;;;;;28.06;41.56;97927.66;5094091;28;20531;-86
2021/07/23 10:55:11;;;;;;;7.03;6.00;;;;;;;28.84;40.27;97920.63;5094920;28;20054;-86
2021/07/23 10:57:36;;;;;;;7.10;5.35;;;;;;;28.68;39.51;97913.53;5094815;28;20336;-86
2021/07/23 11:00:04;;;;;;;7.15;5.10;;;;;;;28.22;39.49;97907.44;5094483;28;20118;-84
2021/07/23 11:02:29;;;;;;;6.22;5.55;;;;;;;27.74;40.55;97914.94;5094414;28;20032;-84
2021/07/23 11:05:09;;;;;;;7.93;5.53;;;;;;;27.87;40.76;97918.91;5094269;28;20020;-87
2021/07/23 11:07:36;;;;;;;5.80;5.15;;;;;;;28.22;39.47;97899.00;5094028;28;20028;-86
2021/07/23 11:10:03;;;;;;;7.25;5.82;;;;;;;28.15;39.45;97897.03;5096426;28;20024;-83
2021/07/23 11:12:31;;;;;;;6.22;5.00;;;;;;;28.65;38.52;97885.38;5094582;28;20476;-87
2021/07/23 11:15:03;;;;;;;7.63;5.43;;;;;;;28.84;38.57;97898.09;5096372;28;20047;-87
2021/07/23 11:17:30;;;;;;;8.18;6.25;;;;;;;28.24;39.78;97901.38;5093541;28;20032;-86
2021/07/23 11:20:03;;;;;;;6.95;5.28;;;;;;;28.23;39.83;97892.16;5093841;28;20028;-87
2021/07/23 11:22:32;;;;;;;6.22;4.72;;;;;;;28.59;39.49;97884.22;5095044;28;20110;-84